Time;durP1;ratioP1;P1;durP2;ratioP2;P2;SDS_P1;SDS_P2;PMS_P1;PMS_P2;Temp;Humidity;BMP_temperature;BMP_pressure;BME280_temperature;BME280_humidity;BME280_pressure;Samples;Min_cycle;Max_cycle;Signal;HPM_P1;HPM_P2
2021/01/04 00:00:14;;;;;;;36.05;14.73;;;;;;;3.80;68.27;100129.97;10420787;28;20138;-56
2021/01/04 00:05:26;;;;;;;23.88;9.32;;;;;;;3.85;67.82;100133.19;10421633;28;20041;-56
2021/01/04 00:10:37;;;;;;;36.00;13.77;;;;;;;3.81;67.89;100143.81;10422725;28;20045;-55
2021/01/04 00:15:45;;;;;;;20.77;9.13;;;;;;;3.90;67.89;100140.75;10421905;28;20038;-56
2021/01/04 00:20:53;;;;;;;24.98;11.63;;;;;;;3.78;68.20;100134.41;10421522;28;20056;-55
2021/01/04 00:26:01;;;;;;;24.15;11.00;;;;;;;3.88;67.67;100137.41;10421883;28;20052;-54
2021/01/04 00:31:07;;;;;;;19.10;7.82;;;;;;;3.78;67.43;100138.78;10420093;28;20056;-55
2021/01/04 00:36:15;;;;;;;28.05;12.43;;;;;;;3.72;67.80;100139.06;10420294;28;20115;-54
2021/01/04 00:41:25;;;;;;;29.65;12.57;;;;;;;3.85;67.75;100141.00;10420050;28;20055;-55
2021/01/04 00:46:33;;;;;;;27.38;12.60;;;;;;;3.81;67.72;100134.25;10419769;28;20061;-55
2021/01/04 00:51:42;;;;;;;15.18;5.95;;;;;;;3.77;67.48;100131.91;10420431;28;20163;-61
2021/01/04 00:56:53;;;;;;;13.05;5.22;;;;;;;3.62;67.92;100128.31;10419876;28;20114;-55
2021/01/04 01:02:20;;;;;;;24.63;11.43;;;;;;;3.49;68.23;100122.88;10419644;28;20053;-57
2021/01/04 01:07:59;;;;;;;23.50;11.38;;;;;;;3.55;67.65;100109.56;10418647;28;20053;-55
2021/01/04 01:13:30;;;;;;;27.05;11.48;;;;;;;3.45;67.60;100098.78;10418651;28;20049;-54
2021/01/04 01:18:38;;;;;;;28.05;11.68;;;;;;;3.50;67.41;100093.34;10415452;28;20065;-56
2021/01/04 01:23:41;;;;;;;27.42;10.43;;;;;;;3.43;67.86;100099.78;10418707;28;20099;-55
2021/01/04 01:29:17;;;;;;;27.10;10.75;;;;;;;3.54;67.77;100091.44;10418828;28;20053;-54
2021/01/04 01:34:29;;;;;;;25.88;11.52;;;;;;;3.61;67.48;100091.06;10418848;28;20049;-55
2021/01/04 01:40:03;;;;;;;24.55;9.52;;;;;;;3.54;66.97;100084.50;10418915;28;20041;-56
2021/01/04 01:45:14;;;;;;;29.73;11.95;;;;;;;3.33;67.40;100090.75;10417946;28;20057;-56
2021/01/04 01:50:27;;;;;;;16.17;7.30;;;;;;;3.36;67.85;100091.44;10417584;28;20064;-55
2021/01/04 01:55:36;;;;;;;21.13;7.93;;;;;;;3.19;67.38;100088.81;10418502;28;20140;-53
2021/01/04 02:00:46;;;;;;;27.05;12.25;;;;;;;3.10;67.99;100084.91;10417740;28;20053;-56
2021/01/04 02:06:07;;;;;;;22.08;9.30;;;;;;;3.12;67.86;100084.84;10418901;28;20045;-55
2021/01/04 02:11:22;;;;;;;25.30;10.63;;;;;;;3.17;67.98;100081.13;10418018;28;20049;-59
2021/01/04 02:16:29;;;;;;;30.67;13.30;;;;;;;3.10;67.19;100079.72;10417015;28;20041;-52
2021/01/04 02:22:07;;;;;;;34.90;13.50;;;;;;;2.95;67.78;100093.44;10420098;28;20060;-55
2021/01/04 02:27:16;;;;;;;42.97;12.23;;;;;;;2.84;68.15;100095.72;10425405;28;20060;-55
2021/01/04 02:32:18;;;;;;;40.40;8.98;;;;;;;2.79;67.91;100090.72;10425407;28;20083;-54
2021/01/04 02:37:21;;;;;;;32.97;7.50;;;;;;;2.74;68.26;100092.69;10426463;28;20045;-55
2021/01/04 02:42:25;;;;;;;;;;;;;;;2.60;68.59;100088.16;10426585;28;20045;-55
2021/01/04 02:47:55;;;;;;;27.45;8.10;;;;;;;2.42;68.48;100079.44;10423983;28;19943;-56
2021/01/04 02:53:12;;;;;;;25.20;8.02;;;;;;;2.35;68.68;100085.00;10424400;28;20049;-55
2021/01/04 02:58:26;;;;;;;25.95;9.27;;;;;;;2.33;69.03;100084.22;10425625;28;20050;-54
2021/01/04 03:03:29;;;;;;;31.97;8.93;;;;;;;2.28;68.84;100074.06;10425612;28;20064;-58
2021/01/04 03:08:31;;;;;;;21.77;8.18;;;;;;;2.26;69.07;100081.88;10423640;28;20370;-53
2021/01/04 03:13:46;;;;;;;44.03;11.65;;;;;;;2.40;69.33;100080.41;10423788;28;20493;-54
2021/01/04 03:18:54;;;;;;;35.40;11.30;;;;;;;2.67;68.96;100079.16;10424442;28;20061;-54
2021/01/04 03:23:58;;;;;;;35.65;10.05;;;;;;;2.67;68.53;100075.72;10423993;28;20057;-54
2021/01/04 03:29:00;;;;;;;;;;;;;;;2.56;68.32;100081.41;10425676;28;20052;-54
2021/01/04 03:34:02;;;;;;;21.90;8.35;;;;;;;2.42;68.24;100074.25;10422148;28;20351;-52
2021/01/04 03:39:04;;;;;;;42.50;11.63;;;;;;;2.38;68.44;100079.66;10424807;28;20390;-52
2021/01/04 03:44:07;;;;;;;15.70;5.30;;;;;;;2.42;68.63;100076.00;10427595;28;20076;-61
2021/01/04 03:49:08;;;;;;;24.65;7.97;;;;;;;2.37;68.66;100072.78;10426227;28;20064;-54
2021/01/04 03:54:10;;;;;;;37.70;9.25;;;;;;;2.59;68.86;100078.69;10423118;28;20045;-55
2021/01/04 03:59:14;;;;;;;19.00;7.18;;;;;;;2.55;68.14;100082.31;10436894;28;20068;-56
2021/01/04 04:04:16;;;;;;;28.83;12.00;;;;;;;2.62;68.60;100085.50;10436978;28;20045;-56
2021/01/04 04:09:19;;;;;;;21.70;7.97;;;;;;;2.76;68.21;100080.47;10421006;28;20049;-54
2021/01/04 04:14:22;;;;;;;29.00;12.02;;;;;;;2.87;68.37;100074.78;10421443;28;20096;-55
2021/01/04 04:19:23;;;;;;;17.73;5.80;;;;;;;2.76;67.92;100086.50;10421488;28;20057;-63
2021/01/04 04:24:25;;;;;;;31.85;12.88;;;;;;;2.61;68.22;100091.56;10420584;28;20068;-54
2021/01/04 04:29:27;;;;;;;18.65;7.82;;;;;;;2.58;68.25;100094.31;10420766;28;20049;-54
2021/01/04 04:34:29;;;;;;;32.28;12.68;;;;;;;2.55;68.41;100092.69;10436896;28;20052;-55
2021/01/04 04:39:31;;;;;;;21.98;8.25;;;;;;;2.50;67.81;100099.88;10422162;28;20045;-55
2021/01/04 04:44:41;;;;;;;30.05;12.93;;;;;;;2.51;68.30;100107.56;10420618;28;20076;-53
2021/01/04 04:49:57;;;;;;;17.33;6.45;;;;;;;2.55;68.22;100092.69;10419830;28;20045;-55
2021/01/04 04:55:10;;;;;;;28.45;10.60;;;;;;;2.49;67.84;100086.06;10435777;28;20059;-57
2021/01/04 05:00:31;;;;;;;15.15;6.40;;;;;;;2.43;67.35;100077.69;10419894;28;20111;-56
2021/01/04 05:05:54;;;;;;;25.95;10.82;;;;;;;2.36;68.36;100065.91;10435948;28;20080;-53
2021/01/04 05:10:58;;;;;;;26.92;11.70;;;;;;;2.55;68.08;100051.16;10435709;28;20481;-54
2021/01/04 05:16:02;;;;;;;;;;;;;;;2.68;67.73;100049.69;10419651;28;20398;-60
2021/01/04 05:21:58;;;;;;;31.15;13.02;;;;;;;2.66;67.88;100061.06;10420301;28;19935;-54
2021/01/04 05:27:23;;;;;;;30.33;13.27;;;;;;;2.86;67.83;100049.72;10434369;28;20486;-55
2021/01/04 05:32:55;;;;;;;29.88;13.90;;;;;;;2.96;67.83;100056.19;10419083;28;20041;-54
2021/01/04 05:38:06;;;;;;;29.88;11.50;;;;;;;2.96;66.79;100069.16;10401122;28;20524;-53
2021/01/04 05:43:16;;;;;;;30.35;11.60;;;;;;;2.69;66.41;100082.53;10417611;28;20037;-53
2021/01/04 05:48:39;;;;;;;29.45;11.27;;;;;;;2.50;67.37;100090.31;10417369;28;20046;-54
2021/01/04 05:53:42;;;;;;;31.02;12.40;;;;;;;2.58;66.91;100097.75;10416860;28;20042;-55
2021/01/04 05:58:43;;;;;;;32.50;12.20;;;;;;;2.47;67.01;100100.00;10418945;28;20061;-57
2021/01/04 06:03:56;;;;;;;27.27;11.10;;;;;;;2.39;67.15;100107.28;10419804;28;20045;-55
2021/01/04 06:09:07;;;;;;;33.13;12.70;;;;;;;2.33;67.02;100102.38;10417106;28;20057;-55
2021/01/04 06:14:09;;;;;;;23.02;9.93;;;;;;;2.18;66.46;100099.53;10417608;28;20038;-55
2021/01/04 06:19:17;;;;;;;31.38;12.20;;;;;;;2.17;67.54;100107.41;10432476;28;20433;-55
2021/01/04 06:24:29;;;;;;;14.90;6.68;;;;;;;2.13;66.54;100106.69;10417588;28;20102;-54
2021/01/04 06:29:42;;;;;;;26.80;9.85;;;;;;;2.08;66.68;100099.09;10449295;28;20148;-55
2021/01/04 06:34:50;;;;;;;28.57;11.57;;;;;;;2.23;67.49;100102.78;10416936;28;20458;-54
2021/01/04 06:40:01;;;;;;;29.50;13.07;;;;;;;2.29;67.27;100099.91;10417427;28;20056;-55
2021/01/04 06:45:21;;;;;;;27.55;9.20;;;;;;;2.30;67.10;100098.16;10432949;28;20140;-56
2021/01/04 06:50:32;;;;;;;39.47;13.25;;;;;;;2.41;67.51;100101.13;10415820;28;20058;-53
2021/01/04 06:56:06;;;;;;;37.70;16.33;;;;;;;2.57;67.15;100110.81;10416426;28;20367;-54
2021/01/04 07:01:26;;;;;;;29.05;12.90;;;;;;;2.48;67.02;100112.91;10398730;28;20053;-55
2021/01/04 07:06:51;;;;;;;28.25;11.45;;;;;;;2.43;67.06;100101.03;10416070;28;20041;-54
2021/01/04 07:11:57;;;;;;;;;;;;;;;2.26;66.42;100091.44;10424513;28;20049;-55
2021/01/04 07:17:30;;;;;;;42.05;16.00;;;;;;;2.22;67.61;100095.91;10424283;28;19956;-55
2021/01/04 07:22:43;;;;;;;43.05;18.38;;;;;;;2.42;67.84;100120.97;10419866;28;20398;-54
2021/01/04 07:27:50;;;;;;;39.13;16.52;;;;;;;2.66;67.15;100121.59;10422948;28;20056;-53
2021/01/04 07:33:03;;;;;;;40.72;17.25;;;;;;;2.77;67.35;100115.91;10438797;28;20064;-54
2021/01/04 07:38:21;;;;;;;32.20;15.77;;;;;;;2.68;67.16;100124.13;10438136;28;20084;-57
2021/01/04 07:43:52;;;;;;;31.15;12.77;;;;;;;2.69;66.79;100116.28;10422205;28;20437;-56
2021/01/04 07:49:25;;;;;;;34.95;16.20;;;;;;;2.57;67.09;100106.44;10423819;28;20049;-54
2021/01/04 07:55:05;;;;;;;30.63;13.52;;;;;;;2.67;66.44;100099.91;10415419;28;20060;-58
2021/01/04 08:00:38;;;;;;;38.65;15.50;;;;;;;2.67;66.63;100107.69;10422549;28;20065;-54
2021/01/04 08:06:04;;;;;;;43.55;19.95;;;;;;;2.84;66.58;100106.94;10438142;28;20053;-53
2021/01/04 08:11:44;;;;;;;45.20;18.13;;;;;;;2.90;66.55;100116.19;10415899;28;20486;-55
2021/01/04 08:16:51;;;;;;;23.25;8.45;;;;;;;2.82;66.19;100120.91;10409897;28;20061;-54
2021/01/04 08:22:02;;;;;;;37.60;16.20;;;;;;;2.70;66.48;100133.53;10420891;28;20102;-55
2021/01/04 08:27:14;;;;;;;10.23;4.57;;;;;;;2.68;65.44;100129.31;10421433;28;20052;-54
2021/01/04 08:32:22;;;;;;;33.28;10.75;;;;;;;2.26;65.17;100123.41;10421533;28;20056;-56
2021/01/04 08:37:35;;;;;;;32.25;12.25;;;;;;;2.26;66.27;100133.78;10420483;28;20041;-54
2021/01/04 08:42:36;;;;;;;28.83;11.15;;;;;;;2.23;65.50;100139.09;10419956;28;20045;-54
2021/01/04 08:47:48;;;;;;;22.25;7.78;;;;;;;2.19;66.48;100136.72;10420860;28;20045;-57
2021/01/04 08:52:52;;;;;;;32.33;12.73;;;;;;;2.32;66.37;100140.44;10422690;28;20046;-54
2021/01/04 08:57:54;;;;;;;31.60;11.50;;;;;;;2.18;65.66;100130.66;10420996;28;20114;-54
2021/01/04 09:02:57;;;;;;;37.03;14.45;;;;;;;2.07;66.38;100107.81;10419174;28;20398;-57
2021/01/04 09:08:00;;;;;;;38.27;13.00;;;;;;;2.26;66.31;100101.81;10419061;28;20420;-55
2021/01/04 09:13:10;;;;;;;20.67;9.20;;;;;;;2.33;65.97;100107.56;10418961;28;20300;-58
2021/01/04 09:18:33;;;;;;;32.35;11.55;;;;;;;2.13;66.03;100111.88;10419481;28;20302;-53
2021/01/04 09:23:38;;;;;;;28.25;10.82;;;;;;;2.04;65.96;100123.50;10420265;28;20052;-54
2021/01/04 09:28:42;;;;;;;42.33;15.60;;;;;;;2.14;66.49;100103.19;10418535;28;20511;-54
2021/01/04 09:33:47;;;;;;;38.00;14.48;;;;;;;2.35;66.34;100103.16;10418181;28;20053;-51
2021/01/04 09:38:50;;;;;;;31.73;10.40;;;;;;;2.14;65.68;100087.63;10420462;28;20056;-55
2021/01/04 09:44:03;;;;;;;37.17;11.95;;;;;;;2.06;66.53;100074.16;10418733;28;20191;-57
2021/01/04 09:49:09;;;;;;;39.88;16.17;;;;;;;2.01;66.00;100076.97;10418087;28;20084;-55
2021/01/04 09:54:15;;;;;;;39.60;16.33;;;;;;;2.04;65.99;100071.63;10417490;28;20046;-54
2021/01/04 09:59:20;;;;;;;42.28;11.27;;;;;;;2.03;65.76;100074.28;10417712;28;20065;-56
2021/01/04 10:04:31;;;;;;;31.45;10.63;;;;;;;2.03;66.11;100069.09;10418542;28;20049;-56
2021/01/04 10:09:38;;;;;;;41.20;16.65;;;;;;;2.10;66.32;100078.31;10417657;28;20484;-55
2021/01/04 10:14:39;;;;;;;37.95;12.35;;;;;;;2.03;66.11;100074.28;10421043;28;20045;-54
2021/01/04 10:19:50;;;;;;;28.25;12.27;;;;;;;1.88;65.91;100078.41;10433318;28;20064;-53
2021/01/04 10:24:55;;;;;;;47.75;18.20;;;;;;;1.74;66.00;100084.19;10417888;28;20049;-54
2021/01/04 10:29:58;;;;;;;39.65;16.42;;;;;;;1.70;66.51;100090.41;10417499;28;20060;-54
2021/01/04 10:35:01;;;;;;;50.37;14.03;;;;;;;1.79;66.77;100087.41;10417263;28;20049;-55
2021/01/04 10:40:06;;;;;;;27.33;9.60;;;;;;;1.94;66.16;100090.25;10417968;28;20049;-51
2021/01/04 10:45:11;;;;;;;34.90;11.68;;;;;;;1.72;65.66;100092.91;10422507;28;20046;-54
2021/01/04 10:50:18;;;;;;;24.90;11.25;;;;;;;1.48;65.91;100093.06;10424667;28;20048;-55
2021/01/04 10:55:22;;;;;;;37.63;16.48;;;;;;;1.41;66.54;100106.31;10424502;28;20371;-57
2021/01/04 11:00:28;;;;;;;35.63;14.13;;;;;;;1.49;66.44;100109.44;10424317;28;20146;-56
2021/01/04 11:05:36;;;;;;;24.25;9.52;;;;;;;1.46;66.72;100109.56;10425494;28;20474;-52
2021/01/04 11:10:38;;;;;;;32.90;13.95;;;;;;;1.50;66.43;100106.78;10424505;28;20045;-55
2021/01/04 11:15:40;;;;;;;38.20;14.95;;;;;;;1.58;66.43;100102.13;10423649;28;20448;-55
2021/01/04 11:20:43;;;;;;;45.53;20.40;;;;;;;1.82;66.72;100094.22;10423105;28;20053;-57
2021/01/04 11:25:45;;;;;;;44.28;18.02;;;;;;;2.15;66.93;100098.84;10438878;28;20056;-56
2021/01/04 11:30:47;;;;;;;34.80;14.68;;;;;;;2.29;66.81;100096.47;10422787;28;20176;-55
2021/01/04 11:35:49;;;;;;;42.03;17.98;;;;;;;2.34;66.51;100110.09;10424180;28;20064;-53
2021/01/04 11:40:51;;;;;;;44.15;18.33;;;;;;;2.37;66.20;100122.06;10422233;28;20057;-55
2021/01/04 11:45:53;;;;;;;34.80;14.52;;;;;;;2.46;66.29;100127.72;10422978;28;20387;-54
2021/01/04 11:50:55;;;;;;;36.22;14.65;;;;;;;2.15;65.26;100127.38;10422669;28;20041;-55
2021/01/04 11:55:57;;;;;;;42.97;16.48;;;;;;;2.19;66.67;100127.19;10436908;28;20060;-54
2021/01/04 12:00:59;;;;;;;43.58;19.23;;;;;;;2.29;65.63;100133.63;10421254;28;20061;-55
2021/01/04 12:06:02;;;;;;;40.15;15.15;;;;;;;2.08;65.33;100125.03;10420418;28;20058;-56
2021/01/04 12:11:04;;;;;;;39.83;15.77;;;;;;;1.84;65.29;100111.38;10436772;28;20052;-54
2021/01/04 12:16:06;;;;;;;45.55;16.80;;;;;;;1.76;65.69;100103.09;10421018;28;20045;-55
2021/01/04 12:21:08;;;;;;;38.70;14.18;;;;;;;1.81;65.53;100098.53;10422473;28;20068;-54
2021/01/04 12:26:12;;;;;;;41.80;15.75;;;;;;;1.83;65.42;100085.53;10421266;28;20057;-54
2021/01/04 12:31:14;;;;;;;35.17;13.50;;;;;;;1.79;64.98;100099.53;10420200;28;20124;-54
2021/01/04 12:36:19;;;;;;;31.33;12.90;;;;;;;1.76;65.38;100097.91;10420509;28;20080;-55
2021/01/04 12:41:21;;;;;;;42.78;16.63;;;;;;;1.75;65.17;100105.75;10419935;28;20052;-53
2021/01/04 12:46:22;;;;;;;43.92;17.90;;;;;;;1.66;65.39;100100.94;10419949;28;20137;-55
2021/01/04 12:51:25;;;;;;;29.42;11.80;;;;;;;1.62;65.39;100108.00;10420185;28;20375;-54
2021/01/04 12:56:26;;;;;;;43.60;18.73;;;;;;;1.62;65.53;100089.88;10419931;28;20068;-56
2021/01/04 13:01:28;;;;;;;44.92;18.38;;;;;;;1.64;65.81;100089.81;10419311;28;20153;-54
2021/01/04 13:06:33;;;;;;;44.28;17.67;;;;;;;1.83;65.81;100086.38;10419743;28;20363;-55
2021/01/04 13:11:34;;;;;;;36.90;12.43;;;;;;;1.76;65.63;100091.91;10420572;28;20588;-54
2021/01/04 13:16:37;;;;;;;42.45;18.90;;;;;;;1.66;66.09;100106.13;10419605;28;20116;-56
2021/01/04 13:21:40;;;;;;;30.42;12.40;;;;;;;1.66;66.07;100108.72;10434681;28;20049;-55
2021/01/04 13:26:43;;;;;;;56.87;20.63;;;;;;;1.58;65.91;100106.47;10418063;28;20272;-57
2021/01/04 13:31:45;;;;;;;45.35;20.15;;;;;;;1.58;65.93;100109.91;10418441;28;20056;-55
2021/01/04 13:36:49;;;;;;;52.00;19.60;;;;;;;1.58;66.26;100114.25;10419251;28;20053;-54
2021/01/04 13:41:51;;;;;;;54.28;20.23;;;;;;;1.60;66.05;100107.22;10419592;28;20148;-53
2021/01/04 13:46:58;;;;;;;37.35;17.35;;;;;;;1.68;65.97;100118.13;10417578;28;20064;-55
2021/01/04 13:52:00;;;;;;;39.22;14.45;;;;;;;1.64;65.49;100134.72;10418367;28;20045;-54
2021/01/04 13:57:02;;;;;;;44.20;18.13;;;;;;;1.54;66.08;100130.81;10417401;28;20080;-56
2021/01/04 14:02:05;;;;;;;46.85;19.50;;;;;;;1.54;65.82;100123.03;10417464;28;20405;-55
2021/01/04 14:07:08;;;;;;;;;;;;;;;1.67;66.26;100118.19;10419235;28;20060;-54
2021/01/04 14:12:10;;;;;;;52.88;20.50;;;;;;;1.73;65.76;100123.97;10433207;28;19936;-54
2021/01/04 14:17:11;;;;;;;48.50;18.02;;;;;;;1.74;65.86;100123.06;10417435;28;20053;-54
2021/01/04 14:22:14;;;;;;;46.20;18.15;;;;;;;1.76;65.91;100113.47;10417618;28;20042;-60
2021/01/04 14:27:16;;;;;;;40.50;17.63;;;;;;;1.80;65.94;100119.38;10418051;28;20049;-55
2021/01/04 14:32:17;;;;;;;35.03;13.35;;;;;;;1.71;65.69;100136.13;10416832;28;20050;-54
2021/01/04 14:37:21;;;;;;;41.75;14.60;;;;;;;1.57;66.11;100139.31;10416462;28;20486;-56
2021/01/04 14:42:25;;;;;;;45.72;18.88;;;;;;;1.52;66.27;100130.88;10432511;28;20084;-57
2021/01/04 14:47:31;;;;;;;41.45;15.45;;;;;;;1.53;66.89;100131.72;10417273;28;20053;-55
2021/01/04 14:52:33;;;;;;;40.78;14.77;;;;;;;1.50;66.66;100145.63;10416407;28;20229;-54
2021/01/04 14:57:35;;;;;;;38.47;13.85;;;;;;;1.47;66.73;100147.50;10416008;28;20060;-56
2021/01/04 15:02:37;;;;;;;42.90;17.90;;;;;;;1.33;66.90;100145.50;10416258;28;20057;-55
2021/01/04 15:07:39;;;;;;;58.28;21.70;;;;;;;1.29;67.70;100142.19;10415871;28;20049;-54
2021/01/04 15:12:41;;;;;;;59.83;19.10;;;;;;;1.35;67.44;100134.13;10416170;28;20099;-56
2021/01/04 15:17:42;;;;;;;42.10;15.20;;;;;;;1.34;67.34;100153.19;10416695;28;20449;-54
2021/01/04 15:22:45;;;;;;;45.53;16.13;;;;;;;1.31;67.15;100161.09;10415463;28;20049;-55
2021/01/04 15:27:47;;;;;;;35.10;12.23;;;;;;;1.33;67.31;100167.06;10416740;28;20049;-54
2021/01/04 15:32:48;;;;;;;54.03;18.27;;;;;;;1.34;67.73;100170.47;10422375;28;20500;-56
2021/01/04 15:37:51;;;;;;;43.90;15.88;;;;;;;1.53;66.92;100162.81;10439183;28;20140;-55
2021/01/04 15:42:52;;;;;;;47.75;19.70;;;;;;;1.57;67.22;100148.81;10422185;28;20054;-54
2021/01/04 15:47:54;;;;;;;45.55;18.20;;;;;;;1.72;66.81;100149.94;10422143;28;20482;-54
2021/01/04 15:52:57;;;;;;;42.45;17.10;;;;;;;1.77;66.25;100135.03;10421661;28;20088;-55
2021/01/04 15:57:58;;;;;;;50.47;19.27;;;;;;;1.80;66.41;100140.94;10421475;28;20148;-53
2021/01/04 16:03:00;;;;;;;49.72;17.58;;;;;;;1.83;66.32;100140.81;10421301;28;20132;-56
2021/01/04 16:08:02;;;;;;;47.45;16.10;;;;;;;1.87;66.48;100138.94;10420955;28;20049;-55
2021/01/04 16:13:04;;;;;;;49.28;20.02;;;;;;;1.91;66.59;100137.03;10421937;28;20045;-56
2021/01/04 16:18:06;;;;;;;49.72;16.67;;;;;;;1.95;66.37;100144.63;10421167;28;20045;-55
2021/01/04 16:23:09;;;;;;;48.75;17.38;;;;;;;1.91;66.26;100137.03;10420647;28;20046;-54
2021/01/04 16:28:10;;;;;;;46.88;17.02;;;;;;;1.92;66.44;100134.41;10421141;28;20148;-54
2021/01/04 16:33:12;;;;;;;39.45;15.13;;;;;;;1.94;65.98;100134.31;10422824;28;20056;-53
2021/01/04 16:38:15;;;;;;;36.72;13.15;;;;;;;1.93;66.02;100137.81;10420739;28;20049;-54
2021/01/04 16:43:19;;;;;;;42.40;15.02;;;;;;;1.69;65.84;100150.91;10419946;28;20054;-54
2021/01/04 16:48:20;;;;;;;41.85;16.08;;;;;;;1.64;66.35;100139.91;10421542;28;20049;-53
2021/01/04 16:53:23;;;;;;;45.67;18.25;;;;;;;1.71;66.27;100127.53;10420046;28;20041;-54
2021/01/04 16:58:24;;;;;;;36.60;16.15;;;;;;;1.75;65.99;100122.13;10419140;28;20054;-53
2021/01/04 17:03:27;;;;;;;45.95;15.10;;;;;;;1.88;65.80;100121.63;10419122;28;20394;-54
2021/01/04 17:08:30;;;;;;;47.30;16.83;;;;;;;2.00;66.17;100127.16;10418693;28;20053;-54
2021/01/04 17:13:31;;;;;;;42.58;17.55;;;;;;;2.14;65.43;100110.97;10419241;28;20037;-56
2021/01/04 17:18:33;;;;;;;38.42;13.68;;;;;;;2.10;65.12;100112.03;10418436;28;20401;-53
2021/01/04 17:23:37;;;;;;;36.22;14.30;;;;;;;1.89;65.80;100110.34;10418776;28;20042;-55
2021/01/04 17:28:39;;;;;;;40.80;17.65;;;;;;;1.70;65.59;100118.91;10418966;28;20053;-59
2021/01/04 17:33:41;;;;;;;36.55;14.75;;;;;;;1.66;65.91;100122.53;10433992;28;20037;-54
2021/01/04 17:38:43;;;;;;;36.15;13.48;;;;;;;1.54;66.40;100128.22;10418256;28;20057;-55
2021/01/04 17:43:45;;;;;;;32.67;13.02;;;;;;;1.50;66.19;100131.84;10418115;28;20065;-54
2021/01/04 17:48:47;;;;;;;41.17;16.45;;;;;;;1.45;66.47;100134.63;10418883;28;20060;-54
2021/01/04 17:53:50;;;;;;;32.13;11.20;;;;;;;1.56;66.55;100142.78;10418470;28;20037;-55
2021/01/04 17:58:56;;;;;;;34.45;14.23;;;;;;;1.69;66.42;100132.75;10418066;28;20196;-54
2021/01/04 18:03:58;;;;;;;35.92;12.05;;;;;;;1.63;66.21;100143.38;10417193;28;20053;-56
2021/01/04 18:09:04;;;;;;;37.85;15.27;;;;;;;1.54;66.18;100135.97;10417057;28;20060;-54
2021/01/04 18:14:06;;;;;;;52.03;16.70;;;;;;;1.55;66.75;100142.88;10417612;28;20056;-54
2021/01/04 18:19:08;;;;;;;42.30;15.50;;;;;;;1.64;66.16;100144.25;10418795;28;20064;-55
2021/01/04 18:24:11;;;;;;;36.15;14.32;;;;;;;1.68;66.42;100151.81;10418432;28;20042;-53
2021/01/04 18:29:14;;;;;;;46.67;18.83;;;;;;;1.73;66.32;100149.06;10434018;28;20060;-53
2021/01/04 18:34:16;;;;;;;48.85;17.77;;;;;;;1.72;66.37;100163.72;10416282;28;20356;-55
2021/01/04 18:39:19;;;;;;;37.58;15.38;;;;;;;1.67;66.58;100168.28;10433042;28;20374;-54
2021/01/04 18:44:22;;;;;;;51.87;19.60;;;;;;;1.67;66.36;100168.28;10417655;28;20462;-53
2021/01/04 18:49:24;;;;;;;51.67;17.42;;;;;;;1.68;66.09;100161.34;10418411;28;20156;-55
2021/01/04 18:54:27;;;;;;;51.85;18.70;;;;;;;1.74;66.28;100164.53;10416083;28;20171;-54
2021/01/04 18:59:29;;;;;;;48.65;18.90;;;;;;;2.02;66.12;100145.22;10416258;28;20072;-54
2021/01/04 19:04:33;;;;;;;44.05;13.60;;;;;;;2.15;65.57;100159.31;10420346;28;20049;-56
2021/01/04 19:09:36;;;;;;;53.85;16.05;;;;;;;1.98;65.80;100169.59;10427120;28;20084;-54
2021/01/04 19:14:38;;;;;;;49.17;18.93;;;;;;;1.83;66.05;100158.97;10423501;28;20045;-54
2021/01/04 19:19:41;;;;;;;42.13;13.43;;;;;;;1.74;66.06;100169.72;10423756;28;20045;-54
2021/01/04 19:24:45;;;;;;;39.58;14.20;;;;;;;1.66;66.28;100174.34;10424110;28;20058;-54
2021/01/04 19:29:46;;;;;;;55.55;18.77;;;;;;;1.65;66.57;100180.44;10425592;28;20049;-54
2021/01/04 19:34:48;;;;;;;50.15;16.77;;;;;;;1.84;66.22;100171.00;10438690;28;20060;-53
2021/01/04 19:39:50;;;;;;;49.22;18.42;;;;;;;2.00;66.08;100162.56;10422200;28;20060;-54
2021/01/04 19:44:52;;;;;;;63.90;23.75;;;;;;;2.22;65.93;100162.53;10438160;28;20049;-56
2021/01/04 19:49:54;;;;;;;55.15;20.13;;;;;;;2.34;65.63;100171.50;10422996;28;20061;-54
2021/01/04 19:54:56;;;;;;;55.25;19.63;;;;;;;2.38;65.49;100167.88;10423636;28;20049;-54
2021/01/04 19:59:59;;;;;;;49.95;18.17;;;;;;;2.44;65.50;100170.22;10421273;28;20156;-54
2021/01/04 20:05:01;;;;;;;56.88;19.88;;;;;;;2.59;65.46;100158.31;10421327;28;20049;-55
2021/01/04 20:10:04;;;;;;;56.28;19.92;;;;;;;2.68;65.47;100163.06;10421743;28;20046;-54
2021/01/04 20:15:08;;;;;;;43.45;18.80;;;;;;;2.72;65.50;100178.44;10421077;28;20046;-55
2021/01/04 20:20:10;;;;;;;42.00;17.15;;;;;;;2.83;65.23;100177.09;10421102;28;20045;-53
2021/01/04 20:25:14;;;;;;;46.10;17.92;;;;;;;2.65;64.73;100171.84;10420859;28;20053;-54
2021/01/04 20:30:17;;;;;;;46.95;17.98;;;;;;;2.65;65.51;100158.00;10421072;28;20083;-54
2021/01/04 20:35:18;;;;;;;38.17;16.88;;;;;;;2.87;65.22;100163.91;10420887;28;20060;-53
2021/01/04 20:40:21;;;;;;;48.63;19.10;;;;;;;2.87;64.65;100163.09;10437217;28;20045;-54
2021/01/04 20:45:23;;;;;;;55.87;21.60;;;;;;;2.89;65.23;100163.84;10420503;28;20076;-56
2021/01/04 20:50:24;;;;;;;46.30;18.27;;;;;;;2.93;64.87;100168.84;10419687;28;20056;-54
2021/01/04 20:55:28;;;;;;;48.70;18.25;;;;;;;2.92;64.87;100185.31;10419450;28;20049;-56
2021/01/04 21:00:30;;;;;;;42.63;17.50;;;;;;;3.00;65.18;100179.78;10419648;28;20053;-54
2021/01/04 21:05:32;;;;;;;44.38;17.98;;;;;;;3.08;64.80;100169.88;10421619;28;20075;-58
2021/01/04 21:10:34;;;;;;;41.90;18.20;;;;;;;3.11;65.05;100185.31;10422570;28;20071;-54
2021/01/04 21:15:36;;;;;;;45.85;18.08;;;;;;;3.01;64.83;100184.03;10419319;28;20045;-56
2021/01/04 21:20:38;;;;;;;54.95;21.75;;;;;;;3.02;64.94;100185.75;10434468;28;20053;-55
2021/01/04 21:25:41;;;;;;;40.70;18.20;;;;;;;3.07;64.72;100195.91;10417513;28;20053;-54
2021/01/04 21:30:44;;;;;;;45.70;17.80;;;;;;;3.16;64.23;100209.31;10418292;28;20064;-54
2021/01/04 21:35:46;;;;;;;49.72;20.13;;;;;;;3.38;63.87;100203.09;10418539;28;20107;-54
2021/01/04 21:40:49;;;;;;;50.05;20.13;;;;;;;3.31;64.42;100202.56;10418638;28;20045;-54
2021/01/04 21:45:50;;;;;;;52.03;19.42;;;;;;;3.26;64.34;100209.72;10419086;28;20057;-55
2021/01/04 21:50:53;;;;;;;45.90;17.73;;;;;;;3.29;64.05;100200.94;10419881;28;20459;-54
2021/01/04 21:55:55;;;;;;;46.35;19.90;;;;;;;3.23;63.74;100210.72;10418611;28;20128;-55
2021/01/04 22:00:57;;;;;;;47.53;18.92;;;;;;;3.25;64.35;100200.25;10418247;28;20111;-54
2021/01/04 22:05:58;;;;;;;52.15;20.67;;;;;;;3.17;64.65;100203.22;10417673;28;20056;-54
2021/01/04 22:11:01;;;;;;;48.30;18.15;;;;;;;3.21;64.84;100191.75;10416701;28;20055;-54
2021/01/04 22:16:03;;;;;;;48.60;18.30;;;;;;;3.29;64.10;100200.94;10417156;28;20042;-54
2021/01/04 22:21:05;;;;;;;51.90;17.67;;;;;;;3.27;64.25;100185.44;10418613;28;20057;-56
2021/01/04 22:26:08;;;;;;;46.70;20.63;;;;;;;3.31;63.75;100186.13;10416370;28;20052;-55
2021/01/04 22:31:12;;;;;;;46.23;19.17;;;;;;;3.16;64.32;100190.28;10417425;28;20053;-56
2021/01/04 22:36:16;;;;;;;39.45;16.75;;;;;;;3.18;64.49;100188.47;10416883;28;20311;-55
2021/01/04 22:41:20;;;;;;;43.70;17.95;;;;;;;3.03;64.46;100189.19;10424019;28;20057;-55
2021/01/04 22:46:24;;;;;;;43.80;20.38;;;;;;;2.99;64.00;100191.09;10424406;28;20371;-56
2021/01/04 22:51:25;;;;;;;46.90;18.90;;;;;;;2.94;64.33;100180.88;10425373;28;20054;-55
2021/01/04 22:56:29;;;;;;;44.70;18.85;;;;;;;3.01;63.94;100181.44;10425328;28;20049;-53
2021/01/04 23:01:30;;;;;;;45.78;18.55;;;;;;;3.04;64.20;100177.88;10424354;28;20057;-55
2021/01/04 23:06:33;;;;;;;46.83;19.77;;;;;;;3.07;63.84;100172.53;10425304;28;20473;-58
2021/01/04 23:11:37;;;;;;;49.03;18.00;;;;;;;3.07;63.93;100168.19;10424634;28;20049;-60
2021/01/04 23:16:38;;;;;;;;;;;;;;;3.19;63.78;100183.19;10427852;28;20568;-56